sensor_id;sensor_type;location;lat;lon;timestamp;temperature;humidity
4207;DHT22;2117;47.972;7.830;2024-03-02T00:00:04;4.50;99.90
4207;DHT22;2117;47.972;7.830;2024-03-02T00:02:46;4.40;99.90
4207;DHT22;2117;47.972;7.830;2024-03-02T00:05:14;4.50;99.90
4207;DHT22;2117;47.972;7.830;2024-03-02T00:07:42;4.50;99.90
4207;DHT22;2117;47.972;7.830;2024-03-02T00:10:09;4.50;99.90
4207;DHT22;2117;47.972;7.830;2024-03-02T00:12:39;4.50;99.90
4207;DHT22;2117;47.972;7.830;2024-03-02T00:17:55;4.50;99.90
4207;DHT22;2117;47.972;7.830;2024-03-02T00:20:22;4.50;99.90
4207;DHT22;2117;47.972;7.830;2024-03-02T00:22:49;4.50;99.90
4207;DHT22;2117;47.972;7.830;2024-03-02T00:25:16;4.40;99.90
4207;DHT22;2117;47.972;7.830;2024-03-02T00:27:41;4.40;99.90
4207;DHT22;2117;47.972;7.830;2024-03-02T00:33:13;4.50;99.90
4207;DHT22;2117;47.972;7.830;2024-03-02T00:35:39;4.40;99.90
4207;DHT22;2117;47.972;7.830;2024-03-02T00:38:05;4.40;99.90
4207;DHT22;2117;47.972;7.830;2024-03-02T00:40:34;4.40;99.90
4207;DHT22;2117;47.972;7.830;2024-03-02T00:43:00;4.30;99.90
4207;DHT22;2117;47.972;7.830;2024-03-02T00:45:27;4.30;99.90
4207;DHT22;2117;47.972;7.830;2024-03-02T00:47:53;4.30;99.90
4207;DHT22;2117;47.972;7.830;2024-03-02T00:50:19;4.20;99.90
4207;DHT22;2117;47.972;7.830;2024-03-02T00:52:45;4.20;99.90
4207;DHT22;2117;47.972;7.830;2024-03-02T00:55:14;4.20;99.90
4207;DHT22;2117;47.972;7.830;2024-03-02T00:57:39;4.20;99.90
4207;DHT22;2117;47.972;7.830;2024-03-02T01:00:05;4.20;99.90
4207;DHT22;2117;47.972;7.830;2024-03-02T01:02:35;4.10;99.90
4207;DHT22;2117;47.972;7.830;2024-03-02T01:05:00;4.10;99.90
4207;DHT22;2117;47.972;7.830;2024-03-02T01:07:26;4.10;99.90
4207;DHT22;2117;47.972;7.830;2024-03-02T01:09:52;4.10;99.90
4207;DHT22;2117;47.972;7.830;2024-03-02T01:12:17;4.10;99.90
4207;DHT22;2117;47.972;7.830;2024-03-02T01:14:43;4.10;99.90
4207;DHT22;2117;47.972;7.830;2024-03-02T01:17:08;4.00;99.90
4207;DHT22;2117;47.972;7.830;2024-03-02T01:19:34;4.00;99.90
4207;DHT22;2117;47.972;7.830;2024-03-02T01:22:00;4.00;99.90
4207;DHT22;2117;47.972;7.830;2024-03-02T01:24:25;4.00;99.90
4207;DHT22;2117;47.972;7.830;2024-03-02T01:26:51;4.00;99.90
4207;DHT22;2117;47.972;7.830;2024-03-02T01:29:16;3.90;99.90
4207;DHT22;2117;47.972;7.830;2024-03-02T01:31:42;3.90;99.90
4207;DHT22;2117;47.972;7.830;2024-03-02T01:34:08;3.90;99.90
4207;DHT22;2117;47.972;7.830;2024-03-02T01:36:33;3.90;99.90
4207;DHT22;2117;47.972;7.830;2024-03-02T01:38:59;3.80;99.90
4207;DHT22;2117;47.972;7.830;2024-03-02T01:41:25;3.80;99.90
4207;DHT22;2117;47.972;7.830;2024-03-02T01:43:50;3.80;99.90
4207;DHT22;2117;47.972;7.830;2024-03-02T01:46:16;3.80;99.90
4207;DHT22;2117;47.972;7.830;2024-03-02T01:48:41;3.80;99.90
4207;DHT22;2117;47.972;7.830;2024-03-02T01:51:07;3.80;99.90
4207;DHT22;2117;47.972;7.830;2024-03-02T01:53:34;3.80;99.90
4207;DHT22;2117;47.972;7.830;2024-03-02T01:55:59;3.70;99.90
4207;DHT22;2117;47.972;7.830;2024-03-02T01:58:26;3.70;99.90
4207;DHT22;2117;47.972;7.830;2024-03-02T02:00:52;3.70;99.90
4207;DHT22;2117;47.972;7.830;2024-03-02T02:03:18;3.70;99.90
4207;DHT22;2117;47.972;7.830;2024-03-02T02:05:43;3.70;99.90
4207;DHT22;2117;47.972;7.830;2024-03-02T02:08:09;3.70;99.90
4207;DHT22;2117;47.972;7.830;2024-03-02T02:10:34;3.60;99.90
4207;DHT22;2117;47.972;7.830;2024-03-02T02:13:00;3.70;99.90
4207;DHT22;2117;47.972;7.830;2024-03-02T02:15:27;3.70;99.90
4207;DHT22;2117;47.972;7.830;2024-03-02T02:17:54;3.70;99.90
4207;DHT22;2117;47.972;7.830;2024-03-02T02:20:19;3.70;99.90
4207;DHT22;2117;47.972;7.830;2024-03-02T02:23:02;3.70;99.90
4207;DHT22;2117;47.972;7.830;2024-03-02T02:25:28;3.70;99.90
4207;DHT22;2117;47.972;7.830;2024-03-02T02:27:55;3.70;99.90
4207;DHT22;2117;47.972;7.830;2024-03-02T02:30:29;3.70;99.90
4207;DHT22;2117;47.972;7.830;2024-03-02T02:32:55;3.70;99.90
4207;DHT22;2117;47.972;7.830;2024-03-02T02:35:21;3.60;99.90
4207;DHT22;2117;47.972;7.830;2024-03-02T02:37:47;3.60;99.90
4207;DHT22;2117;47.972;7.830;2024-03-02T02:40:14;3.70;99.90
4207;DHT22;2117;47.972;7.830;2024-03-02T02:42:40;3.70;99.90
4207;DHT22;2117;47.972;7.830;2024-03-02T02:45:06;3.70;99.90
4207;DHT22;2117;47.972;7.830;2024-03-02T02:47:32;3.70;99.90
4207;DHT22;2117;47.972;7.830;2024-03-02T02:50:01;3.70;99.90
4207;DHT22;2117;47.972;7.830;2024-03-02T02:52:34;3.70;99.90
4207;DHT22;2117;47.972;7.830;2024-03-02T02:55:05;3.70;99.90
4207;DHT22;2117;47.972;7.830;2024-03-02T02:57:32;3.70;99.90
4207;DHT22;2117;47.972;7.830;2024-03-02T03:00:02;3.70;99.90
4207;DHT22;2117;47.972;7.830;2024-03-02T03:02:30;3.70;99.90
4207;DHT22;2117;47.972;7.830;2024-03-02T03:04:56;3.70;99.90
4207;DHT22;2117;47.972;7.830;2024-03-02T03:07:22;3.70;99.90
4207;DHT22;2117;47.972;7.830;2024-03-02T03:09:48;3.70;99.90
4207;DHT22;2117;47.972;7.830;2024-03-02T03:12:14;3.70;99.90
4207;DHT22;2117;47.972;7.830;2024-03-02T03:14:40;3.70;99.90
4207;DHT22;2117;47.972;7.830;2024-03-02T03:17:06;3.70;99.90
4207;DHT22;2117;47.972;7.830;2024-03-02T03:19:33;3.70;99.90
4207;DHT22;2117;47.972;7.830;2024-03-02T03:21:59;3.70;99.90
4207;DHT22;2117;47.972;7.830;2024-03-02T03:24:25;3.70;99.90
4207;DHT22;2117;47.972;7.830;2024-03-02T03:26:50;3.70;99.90
4207;DHT22;2117;47.972;7.830;2024-03-02T03:29:16;3.70;99.90
4207;DHT22;2117;47.972;7.830;2024-03-02T03:31:41;3.70;99.90
4207;DHT22;2117;47.972;7.830;2024-03-02T03:34:07;3.70;99.90
4207;DHT22;2117;47.972;7.830;2024-03-02T03:36:32;3.80;99.90
4207;DHT22;2117;47.972;7.830;2024-03-02T03:38:58;3.80;99.90
4207;DHT22;2117;47.972;7.830;2024-03-02T03:41:23;3.70;99.90
4207;DHT22;2117;47.972;7.830;2024-03-02T03:43:49;3.70;99.90
4207;DHT22;2117;47.972;7.830;2024-03-02T03:46:15;3.70;99.90
4207;DHT22;2117;47.972;7.830;2024-03-02T03:48:40;3.70;99.90
4207;DHT22;2117;47.972;7.830;2024-03-02T03:51:07;3.70;99.90
4207;DHT22;2117;47.972;7.830;2024-03-02T03:53:32;3.70;99.90
4207;DHT22;2117;47.972;7.830;2024-03-02T03:55:58;3.70;99.90
4207;DHT22;2117;47.972;7.830;2024-03-02T03:58:23;3.70;99.90
4207;DHT22;2117;47.972;7.830;2024-03-02T04:00:49;3.70;99.90
4207;DHT22;2117;47.972;7.830;2024-03-02T04:03:14;3.70;99.90
4207;DHT22;2117;47.972;7.830;2024-03-02T04:05:40;3.70;99.90
4207;DHT22;2117;47.972;7.830;2024-03-02T04:08:06;3.60;99.90
4207;DHT22;2117;47.972;7.830;2024-03-02T04:10:32;3.60;99.90
4207;DHT22;2117;47.972;7.830;2024-03-02T04:12:57;3.60;99.90
4207;DHT22;2117;47.972;7.830;2024-03-02T04:15:23;3.60;99.90
4207;DHT22;2117;47.972;7.830;2024-03-02T04:17:49;3.60;99.90
4207;DHT22;2117;47.972;7.830;2024-03-02T04:20:14;3.70;99.90
4207;DHT22;2117;47.972;7.830;2024-03-02T04:22:40;3.70;99.90
4207;DHT22;2117;47.972;7.830;2024-03-02T04:25:05;3.70;99.90
4207;DHT22;2117;47.972;7.830;2024-03-02T04:27:32;3.70;99.90
4207;DHT22;2117;47.972;7.830;2024-03-02T04:29:58;3.60;99.90
4207;DHT22;2117;47.972;7.830;2024-03-02T04:32:26;3.60;99.90
4207;DHT22;2117;47.972;7.830;2024-03-02T04:34:51;3.60;99.90
4207;DHT22;2117;47.972;7.830;2024-03-02T04:37:17;3.60;99.90
4207;DHT22;2117;47.972;7.830;2024-03-02T04:39:42;3.70;99.90
4207;DHT22;2117;47.972;7.830;2024-03-02T04:42:08;3.70;99.90
4207;DHT22;2117;47.972;7.830;2024-03-02T04:44:34;3.70;99.90
4207;DHT22;2117;47.972;7.830;2024-03-02T04:46:59;3.70;99.90
4207;DHT22;2117;47.972;7.830;2024-03-02T04:49:25;3.70;99.90
4207;DHT22;2117;47.972;7.830;2024-03-02T04:51:50;3.70;99.90
4207;DHT22;2117;47.972;7.830;2024-03-02T04:54:16;3.70;99.90
4207;DHT22;2117;47.972;7.830;2024-03-02T04:56:42;3.80;99.90
4207;DHT22;2117;47.972;7.830;2024-03-02T04:59:15;3.80;99.90
4207;DHT22;2117;47.972;7.830;2024-03-02T05:01:41;3.90;99.90
4207;DHT22;2117;47.972;7.830;2024-03-02T05:04:06;4.00;99.90
4207;DHT22;2117;47.972;7.830;2024-03-02T05:06:32;4.00;99.90
4207;DHT22;2117;47.972;7.830;2024-03-02T05:08:57;4.00;99.90
4207;DHT22;2117;47.972;7.830;2024-03-02T05:11:23;4.10;99.90
4207;DHT22;2117;47.972;7.830;2024-03-02T05:14:14;4.10;99.90
4207;DHT22;2117;47.972;7.830;2024-03-02T05:16:39;4.20;99.90
4207;DHT22;2117;47.972;7.830;2024-03-02T05:19:07;4.20;99.90
4207;DHT22;2117;47.972;7.830;2024-03-02T05:21:33;4.20;99.90
4207;DHT22;2117;47.972;7.830;2024-03-02T05:23:59;4.30;99.90
4207;DHT22;2117;47.972;7.830;2024-03-02T05:26:24;4.30;99.90
4207;DHT22;2117;47.972;7.830;2024-03-02T05:28:50;4.30;99.90
4207;DHT22;2117;47.972;7.830;2024-03-02T05:31:16;4.30;99.90
4207;DHT22;2117;47.972;7.830;2024-03-02T05:33:42;4.40;99.90
4207;DHT22;2117;47.972;7.830;2024-03-02T05:36:08;4.40;99.90
4207;DHT22;2117;47.972;7.830;2024-03-02T05:38:37;4.50;99.90
4207;DHT22;2117;47.972;7.830;2024-03-02T05:41:03;4.50;99.90
4207;DHT22;2117;47.972;7.830;2024-03-02T05:43:29;4.50;99.90
4207;DHT22;2117;47.972;7.830;2024-03-02T05:45:54;4.50;99.90
4207;DHT22;2117;47.972;7.830;2024-03-02T05:48:20;4.50;99.90
4207;DHT22;2117;47.972;7.830;2024-03-02T05:50:45;4.60;99.90
4207;DHT22;2117;47.972;7.830;2024-03-02T05:53:11;4.60;99.90
4207;DHT22;2117;47.972;7.830;2024-03-02T05:55:37;4.60;99.90
4207;DHT22;2117;47.972;7.830;2024-03-02T05:58:02;4.60;99.90
4207;DHT22;2117;47.972;7.830;2024-03-02T06:00:51;4.70;99.90
4207;DHT22;2117;47.972;7.830;2024-03-02T06:03:16;4.70;99.90
4207;DHT22;2117;47.972;7.830;2024-03-02T06:05:42;4.70;99.90
4207;DHT22;2117;47.972;7.830;2024-03-02T06:08:07;4.70;99.90
4207;DHT22;2117;47.972;7.830;2024-03-02T06:10:33;4.80;99.90
4207;DHT22;2117;47.972;7.830;2024-03-02T06:12:58;4.80;99.90
4207;DHT22;2117;47.972;7.830;2024-03-02T06:15:24;4.80;99.90
4207;DHT22;2117;47.972;7.830;2024-03-02T06:17:50;4.90;99.90
4207;DHT22;2117;47.972;7.830;2024-03-02T06:20:15;4.90;99.90
4207;DHT22;2117;47.972;7.830;2024-03-02T06:22:41;4.90;99.90
4207;DHT22;2117;47.972;7.830;2024-03-02T06:25:07;5.00;99.90
4207;DHT22;2117;47.972;7.830;2024-03-02T06:27:32;5.00;99.90
4207;DHT22;2117;47.972;7.830;2024-03-02T06:29:58;5.00;99.90
4207;DHT22;2117;47.972;7.830;2024-03-02T06:32:23;5.00;99.90
4207;DHT22;2117;47.972;7.830;2024-03-02T06:34:50;5.00;99.90
4207;DHT22;2117;47.972;7.830;2024-03-02T06:37:16;5.00;99.90
4207;DHT22;2117;47.972;7.830;2024-03-02T06:39:41;5.10;99.90
4207;DHT22;2117;47.972;7.830;2024-03-02T06:42:07;5.10;99.90
4207;DHT22;2117;47.972;7.830;2024-03-02T06:44:32;5.10;99.90
4207;DHT22;2117;47.972;7.830;2024-03-02T06:46:59;5.10;99.90
4207;DHT22;2117;47.972;7.830;2024-03-02T06:49:24;5.10;99.90
4207;DHT22;2117;47.972;7.830;2024-03-02T06:51:50;5.10;99.90
4207;DHT22;2117;47.972;7.830;2024-03-02T06:54:15;5.20;99.90
4207;DHT22;2117;47.972;7.830;2024-03-02T06:56:41;5.20;99.90
4207;DHT22;2117;47.972;7.830;2024-03-02T06:59:06;5.20;99.90
4207;DHT22;2117;47.972;7.830;2024-03-02T07:01:32;5.20;99.90
4207;DHT22;2117;47.972;7.830;2024-03-02T07:03:58;5.20;99.90
4207;DHT22;2117;47.972;7.830;2024-03-02T07:06:23;5.20;99.90
4207;DHT22;2117;47.972;7.830;2024-03-02T07:08:49;5.20;99.90
4207;DHT22;2117;47.972;7.830;2024-03-02T07:11:14;5.30;99.90
4207;DHT22;2117;47.972;7.830;2024-03-02T07:13:40;5.30;99.90
4207;DHT22;2117;47.972;7.830;2024-03-02T07:16:06;5.30;99.90
4207;DHT22;2117;47.972;7.830;2024-03-02T07:18:49;5.30;99.90
4207;DHT22;2117;47.972;7.830;2024-03-02T07:21:17;5.40;99.90
4207;DHT22;2117;47.972;7.830;2024-03-02T07:23:43;5.40;99.90
4207;DHT22;2117;47.972;7.830;2024-03-02T07:26:08;5.40;99.90
4207;DHT22;2117;47.972;7.830;2024-03-02T07:28:34;5.50;99.90
4207;DHT22;2117;47.972;7.830;2024-03-02T07:31:04;5.50;99.90
4207;DHT22;2117;47.972;7.830;2024-03-02T07:33:30;5.60;99.90
4207;DHT22;2117;47.972;7.830;2024-03-02T07:35:56;5.60;99.90
4207;DHT22;2117;47.972;7.830;2024-03-02T07:38:22;5.70;99.90
4207;DHT22;2117;47.972;7.830;2024-03-02T07:40:48;5.70;99.90
4207;DHT22;2117;47.972;7.830;2024-03-02T07:43:18;5.80;99.90
4207;DHT22;2117;47.972;7.830;2024-03-02T07:45:47;5.80;99.90
4207;DHT22;2117;47.972;7.830;2024-03-02T07:48:14;5.90;99.90
4207;DHT22;2117;47.972;7.830;2024-03-02T07:50:40;5.90;99.90
4207;DHT22;2117;47.972;7.830;2024-03-02T07:53:06;6.00;99.90
4207;DHT22;2117;47.972;7.830;2024-03-02T07:55:33;6.10;99.90
4207;DHT22;2117;47.972;7.830;2024-03-02T07:57:58;6.20;99.90
4207;DHT22;2117;47.972;7.830;2024-03-02T08:00:25;6.20;99.90
4207;DHT22;2117;47.972;7.830;2024-03-02T08:02:51;6.30;99.90
4207;DHT22;2117;47.972;7.830;2024-03-02T08:05:17;6.40;99.90
4207;DHT22;2117;47.972;7.830;2024-03-02T08:07:45;6.40;99.90
4207;DHT22;2117;47.972;7.830;2024-03-02T08:10:11;6.50;99.90
4207;DHT22;2117;47.972;7.830;2024-03-02T08:12:36;6.60;99.90
4207;DHT22;2117;47.972;7.830;2024-03-02T08:15:02;6.80;99.90
4207;DHT22;2117;47.972;7.830;2024-03-02T08:17:28;6.90;99.90
4207;DHT22;2117;47.972;7.830;2024-03-02T08:19:54;7.00;99.90
4207;DHT22;2117;47.972;7.830;2024-03-02T08:22:19;7.20;99.90
4207;DHT22;2117;47.972;7.830;2024-03-02T08:24:45;7.30;99.90
4207;DHT22;2117;47.972;7.830;2024-03-02T08:27:11;7.50;99.90
4207;DHT22;2117;47.972;7.830;2024-03-02T08:29:37;7.60;99.90
4207;DHT22;2117;47.972;7.830;2024-03-02T08:32:03;7.80;99.90
4207;DHT22;2117;47.972;7.830;2024-03-02T08:34:29;7.90;99.90
4207;DHT22;2117;47.972;7.830;2024-03-02T08:36:54;8.10;99.90
4207;DHT22;2117;47.972;7.830;2024-03-02T08:39:20;8.30;99.90
4207;DHT22;2117;47.972;7.830;2024-03-02T08:41:46;8.50;99.90
4207;DHT22;2117;47.972;7.830;2024-03-02T08:44:12;8.60;99.90
4207;DHT22;2117;47.972;7.830;2024-03-02T08:46:41;8.80;99.90
4207;DHT22;2117;47.972;7.830;2024-03-02T08:49:07;9.00;99.90
4207;DHT22;2117;47.972;7.830;2024-03-02T08:51:33;9.10;99.90
4207;DHT22;2117;47.972;7.830;2024-03-02T08:53:59;9.30;99.90
4207;DHT22;2117;47.972;7.830;2024-03-02T08:56:25;9.50;99.90
4207;DHT22;2117;47.972;7.830;2024-03-02T08:58:51;9.70;99.90
4207;DHT22;2117;47.972;7.830;2024-03-02T09:01:17;9.80;99.90
4207;DHT22;2117;47.972;7.830;2024-03-02T09:03:43;10.00;99.90
4207;DHT22;2117;47.972;7.830;2024-03-02T09:06:12;10.10;99.90
4207;DHT22;2117;47.972;7.830;2024-03-02T09:08:39;10.30;99.90
4207;DHT22;2117;47.972;7.830;2024-03-02T09:11:07;10.50;99.90
4207;DHT22;2117;47.972;7.830;2024-03-02T09:13:33;10.60;99.90
4207;DHT22;2117;47.972;7.830;2024-03-02T09:15:59;10.80;99.90
4207;DHT22;2117;47.972;7.830;2024-03-02T09:18:24;11.00;99.90
4207;DHT22;2117;47.972;7.830;2024-03-02T09:20:50;11.20;99.90
4207;DHT22;2117;47.972;7.830;2024-03-02T09:23:15;11.30;99.90
4207;DHT22;2117;47.972;7.830;2024-03-02T09:25:41;11.50;99.90
4207;DHT22;2117;47.972;7.830;2024-03-02T09:28:07;11.60;99.90
4207;DHT22;2117;47.972;7.830;2024-03-02T09:30:33;11.70;99.90
4207;DHT22;2117;47.972;7.830;2024-03-02T09:32:58;11.80;99.90
4207;DHT22;2117;47.972;7.830;2024-03-02T09:35:24;11.90;99.90
4207;DHT22;2117;47.972;7.830;2024-03-02T09:37:50;11.90;99.90
4207;DHT22;2117;47.972;7.830;2024-03-02T09:40:16;12.00;99.90
4207;DHT22;2117;47.972;7.830;2024-03-02T09:42:42;12.10;99.90
4207;DHT22;2117;47.972;7.830;2024-03-02T09:45:08;12.20;99.90
4207;DHT22;2117;47.972;7.830;2024-03-02T09:47:34;12.20;99.90
4207;DHT22;2117;47.972;7.830;2024-03-02T09:50:00;12.30;99.90
4207;DHT22;2117;47.972;7.830;2024-03-02T09:52:26;12.40;99.90
4207;DHT22;2117;47.972;7.830;2024-03-02T09:54:52;12.60;99.90
4207;DHT22;2117;47.972;7.830;2024-03-02T09:57:17;12.70;99.90
4207;DHT22;2117;47.972;7.830;2024-03-02T09:59:43;12.80;99.90
4207;DHT22;2117;47.972;7.830;2024-03-02T10:02:10;13.00;99.90
4207;DHT22;2117;47.972;7.830;2024-03-02T10:04:36;13.30;99.90
4207;DHT22;2117;47.972;7.830;2024-03-02T10:07:16;13.50;99.90
4207;DHT22;2117;47.972;7.830;2024-03-02T10:09:43;13.80;99.90
4207;DHT22;2117;47.972;7.830;2024-03-02T10:12:10;14.00;99.90
4207;DHT22;2117;47.972;7.830;2024-03-02T10:14:37;14.10;99.90
4207;DHT22;2117;47.972;7.830;2024-03-02T10:17:07;14.20;99.90
4207;DHT22;2117;47.972;7.830;2024-03-02T10:19:33;14.30;99.90
4207;DHT22;2117;47.972;7.830;2024-03-02T10:22:01;14.40;99.90
4207;DHT22;2117;47.972;7.830;2024-03-02T10:24:41;14.50;99.90
4207;DHT22;2117;47.972;7.830;2024-03-02T10:27:10;14.50;99.90
4207;DHT22;2117;47.972;7.830;2024-03-02T10:29:39;14.40;99.90
4207;DHT22;2117;47.972;7.830;2024-03-02T10:32:06;14.50;99.90
4207;DHT22;2117;47.972;7.830;2024-03-02T10:34:34;14.60;99.90
4207;DHT22;2117;47.972;7.830;2024-03-02T10:37:01;14.70;99.90
4207;DHT22;2117;47.972;7.830;2024-03-02T10:39:27;14.80;99.90
4207;DHT22;2117;47.972;7.830;2024-03-02T10:41:53;14.90;99.90
4207;DHT22;2117;47.972;7.830;2024-03-02T10:44:22;15.00;99.90
4207;DHT22;2117;47.972;7.830;2024-03-02T10:46:49;15.10;99.90
4207;DHT22;2117;47.972;7.830;2024-03-02T10:49:19;15.20;99.90
4207;DHT22;2117;47.972;7.830;2024-03-02T10:51:45;15.30;99.90
4207;DHT22;2117;47.972;7.830;2024-03-02T10:54:11;15.30;99.90
4207;DHT22;2117;47.972;7.830;2024-03-02T10:56:41;15.30;99.90
4207;DHT22;2117;47.972;7.830;2024-03-02T11:01:48;15.30;99.90
4207;DHT22;2117;47.972;7.830;2024-03-02T11:04:16;15.30;99.90
4207;DHT22;2117;47.972;7.830;2024-03-02T11:06:50;15.30;99.90
4207;DHT22;2117;47.972;7.830;2024-03-02T11:09:21;15.40;99.90
4207;DHT22;2117;47.972;7.830;2024-03-02T11:11:56;15.60;99.90
4207;DHT22;2117;47.972;7.830;2024-03-02T11:14:26;15.70;99.90
4207;DHT22;2117;47.972;7.830;2024-03-02T11:16:55;15.70;99.90
4207;DHT22;2117;47.972;7.830;2024-03-02T11:19:21;15.70;99.90
4207;DHT22;2117;47.972;7.830;2024-03-02T11:21:47;15.80;99.90
4207;DHT22;2117;47.972;7.830;2024-03-02T11:26:53;15.90;99.90
4207;DHT22;2117;47.972;7.830;2024-03-02T11:32:34;16.20;99.90
4207;DHT22;2117;47.972;7.830;2024-03-02T11:35:02;16.30;99.90
4207;DHT22;2117;47.972;7.830;2024-03-02T11:37:28;16.40;99.90
4207;DHT22;2117;47.972;7.830;2024-03-02T11:39:53;16.50;99.90
4207;DHT22;2117;47.972;7.830;2024-03-02T11:42:19;16.70;99.90
4207;DHT22;2117;47.972;7.830;2024-03-02T11:44:46;16.70;99.90
4207;DHT22;2117;47.972;7.830;2024-03-02T11:47:16;16.90;99.90
4207;DHT22;2117;47.972;7.830;2024-03-02T11:49:48;17.00;99.90
4207;DHT22;2117;47.972;7.830;2024-03-02T11:52:14;17.20;99.90
4207;DHT22;2117;47.972;7.830;2024-03-02T11:54:43;17.30;99.90
4207;DHT22;2117;47.972;7.830;2024-03-02T11:57:13;17.40;99.90
4207;DHT22;2117;47.972;7.830;2024-03-02T11:59:40;17.40;99.90
4207;DHT22;2117;47.972;7.830;2024-03-02T12:02:06;17.30;99.90
4207;DHT22;2117;47.972;7.830;2024-03-02T12:04:32;17.20;99.90
4207;DHT22;2117;47.972;7.830;2024-03-02T12:07:01;17.10;99.90
4207;DHT22;2117;47.972;7.830;2024-03-02T12:09:29;17.20;99.50
4207;DHT22;2117;47.972;7.830;2024-03-02T12:12:08;17.30;99.90
4207;DHT22;2117;47.972;7.830;2024-03-02T12:14:36;17.40;99.10
4207;DHT22;2117;47.972;7.830;2024-03-02T12:17:02;17.50;99.80
4207;DHT22;2117;47.972;7.830;2024-03-02T12:19:29;17.70;98.90
4207;DHT22;2117;47.972;7.830;2024-03-02T12:21:56;17.90;99.30
4207;DHT22;2117;47.972;7.830;2024-03-02T12:24:22;17.90;97.60
4207;DHT22;2117;47.972;7.830;2024-03-02T12:26:51;18.00;97.70
4207;DHT22;2117;47.972;7.830;2024-03-02T12:29:19;18.00;98.10
4207;DHT22;2117;47.972;7.830;2024-03-02T12:31:44;18.30;98.20
4207;DHT22;2117;47.972;7.830;2024-03-02T12:34:14;18.60;98.90
4207;DHT22;2117;47.972;7.830;2024-03-02T12:36:40;18.90;97.00
4207;DHT22;2117;47.972;7.830;2024-03-02T12:39:08;19.20;96.10
4207;DHT22;2117;47.972;7.830;2024-03-02T12:41:36;19.30;95.90
4207;DHT22;2117;47.972;7.830;2024-03-02T12:44:03;19.50;95.10
4207;DHT22;2117;47.972;7.830;2024-03-02T12:46:28;19.50;94.40
4207;DHT22;2117;47.972;7.830;2024-03-02T12:48:54;19.60;94.70
4207;DHT22;2117;47.972;7.830;2024-03-02T12:51:20;19.70;94.30
4207;DHT22;2117;47.972;7.830;2024-03-02T12:53:45;19.90;94.20
4207;DHT22;2117;47.972;7.830;2024-03-02T12:56:18;20.20;94.70
4207;DHT22;2117;47.972;7.830;2024-03-02T12:58:44;20.40;92.70
4207;DHT22;2117;47.972;7.830;2024-03-02T13:01:10;20.70;93.20
4207;DHT22;2117;47.972;7.830;2024-03-02T13:03:39;20.90;92.30
4207;DHT22;2117;47.972;7.830;2024-03-02T13:06:07;21.00;92.30
4207;DHT22;2117;47.972;7.830;2024-03-02T13:08:34;21.00;91.20
4207;DHT22;2117;47.972;7.830;2024-03-02T13:11:00;20.90;92.20
4207;DHT22;2117;47.972;7.830;2024-03-02T13:13:26;21.00;91.90
4207;DHT22;2117;47.972;7.830;2024-03-02T13:15:55;21.20;90.20
4207;DHT22;2117;47.972;7.830;2024-03-02T13:18:22;21.20;90.80
4207;DHT22;2117;47.972;7.830;2024-03-02T13:20:47;21.20;90.50
4207;DHT22;2117;47.972;7.830;2024-03-02T13:23:13;21.10;90.10
4207;DHT22;2117;47.972;7.830;2024-03-02T13:25:39;21.00;90.60
4207;DHT22;2117;47.972;7.830;2024-03-02T13:28:05;20.80;90.40
4207;DHT22;2117;47.972;7.830;2024-03-02T13:30:31;20.60;90.50
4207;DHT22;2117;47.972;7.830;2024-03-02T13:32:58;20.50;90.40
4207;DHT22;2117;47.972;7.830;2024-03-02T13:35:23;20.40;91.10
4207;DHT22;2117;47.972;7.830;2024-03-02T13:37:49;20.20;91.80
4207;DHT22;2117;47.972;7.830;2024-03-02T13:40:15;19.90;91.90
4207;DHT22;2117;47.972;7.830;2024-03-02T13:42:45;19.70;91.90
4207;DHT22;2117;47.972;7.830;2024-03-02T13:45:12;19.40;92.10
4207;DHT22;2117;47.972;7.830;2024-03-02T13:47:37;19.20;92.30
4207;DHT22;2117;47.972;7.830;2024-03-02T13:50:03;18.90;92.50
4207;DHT22;2117;47.972;7.830;2024-03-02T13:52:30;18.90;92.80
4207;DHT22;2117;47.972;7.830;2024-03-02T13:54:56;18.70;93.10
4207;DHT22;2117;47.972;7.830;2024-03-02T13:57:21;18.60;94.20
4207;DHT22;2117;47.972;7.830;2024-03-02T13:59:47;18.50;94.00
4207;DHT22;2117;47.972;7.830;2024-03-02T14:02:13;18.40;93.90
4207;DHT22;2117;47.972;7.830;2024-03-02T14:04:39;18.40;94.20
4207;DHT22;2117;47.972;7.830;2024-03-02T14:07:05;18.40;94.60
4207;DHT22;2117;47.972;7.830;2024-03-02T14:09:34;18.40;94.20
4207;DHT22;2117;47.972;7.830;2024-03-02T14:11:59;18.40;94.30
4207;DHT22;2117;47.972;7.830;2024-03-02T14:14:28;18.30;94.20
4207;DHT22;2117;47.972;7.830;2024-03-02T14:16:57;18.30;94.50
4207;DHT22;2117;47.972;7.830;2024-03-02T14:19:26;18.20;94.60
4207;DHT22;2117;47.972;7.830;2024-03-02T14:21:51;18.10;93.90
4207;DHT22;2117;47.972;7.830;2024-03-02T14:24:17;18.00;93.60
4207;DHT22;2117;47.972;7.830;2024-03-02T14:26:42;17.80;94.20
4207;DHT22;2117;47.972;7.830;2024-03-02T14:29:08;17.80;94.30
4207;DHT22;2117;47.972;7.830;2024-03-02T14:31:33;17.60;94.60
4207;DHT22;2117;47.972;7.830;2024-03-02T14:33:59;17.60;94.60
4207;DHT22;2117;47.972;7.830;2024-03-02T14:36:26;17.50;94.30
4207;DHT22;2117;47.972;7.830;2024-03-02T14:38:53;17.30;94.40
4207;DHT22;2117;47.972;7.830;2024-03-02T14:41:19;17.20;94.70
4207;DHT22;2117;47.972;7.830;2024-03-02T14:43:45;17.20;95.00
4207;DHT22;2117;47.972;7.830;2024-03-02T14:46:11;17.10;95.10
4207;DHT22;2117;47.972;7.830;2024-03-02T14:48:37;17.00;95.70
4207;DHT22;2117;47.972;7.830;2024-03-02T14:51:03;16.90;95.90
4207;DHT22;2117;47.972;7.830;2024-03-02T14:53:29;16.80;95.80
4207;DHT22;2117;47.972;7.830;2024-03-02T14:55:55;16.70;95.70
4207;DHT22;2117;47.972;7.830;2024-03-02T14:58:20;16.60;95.70
4207;DHT22;2117;47.972;7.830;2024-03-02T15:00:46;16.60;96.20
4207;DHT22;2117;47.972;7.830;2024-03-02T15:03:12;16.50;95.30
4207;DHT22;2117;47.972;7.830;2024-03-02T15:05:38;16.50;95.50
4207;DHT22;2117;47.972;7.830;2024-03-02T15:08:05;16.50;96.40
4207;DHT22;2117;47.972;7.830;2024-03-02T15:10:31;16.60;96.60
4207;DHT22;2117;47.972;7.830;2024-03-02T15:12:57;16.60;96.70
4207;DHT22;2117;47.972;7.830;2024-03-02T15:15:23;16.60;96.80
4207;DHT22;2117;47.972;7.830;2024-03-02T15:17:49;16.50;97.30
4207;DHT22;2117;47.972;7.830;2024-03-02T15:20:15;16.40;97.90
4207;DHT22;2117;47.972;7.830;2024-03-02T15:22:41;16.30;98.00
4207;DHT22;2117;47.972;7.830;2024-03-02T15:25:06;16.30;97.80
4207;DHT22;2117;47.972;7.830;2024-03-02T15:27:32;16.30;97.80
4207;DHT22;2117;47.972;7.830;2024-03-02T15:29:58;16.20;97.30
4207;DHT22;2117;47.972;7.830;2024-03-02T15:32:23;16.30;97.40
4207;DHT22;2117;47.972;7.830;2024-03-02T15:34:50;16.30;97.20
4207;DHT22;2117;47.972;7.830;2024-03-02T15:37:17;16.40;97.60
4207;DHT22;2117;47.972;7.830;2024-03-02T15:39:42;16.40;96.90
4207;DHT22;2117;47.972;7.830;2024-03-02T15:42:09;16.40;97.30
4207;DHT22;2117;47.972;7.830;2024-03-02T15:44:35;16.50;97.20
4207;DHT22;2117;47.972;7.830;2024-03-02T15:47:00;16.60;96.70
4207;DHT22;2117;47.972;7.830;2024-03-02T15:49:26;16.60;97.40
4207;DHT22;2117;47.972;7.830;2024-03-02T15:51:53;16.60;96.00
4207;DHT22;2117;47.972;7.830;2024-03-02T15:54:19;16.60;96.00
4207;DHT22;2117;47.972;7.830;2024-03-02T15:56:44;16.60;96.20
4207;DHT22;2117;47.972;7.830;2024-03-02T15:59:10;16.60;96.70
4207;DHT22;2117;47.972;7.830;2024-03-02T16:01:36;16.60;96.70
4207;DHT22;2117;47.972;7.830;2024-03-02T16:04:01;16.60;96.80
4207;DHT22;2117;47.972;7.830;2024-03-02T16:06:27;16.60;97.00
4207;DHT22;2117;47.972;7.830;2024-03-02T16:08:53;16.60;97.20
4207;DHT22;2117;47.972;7.830;2024-03-02T16:11:21;16.60;97.30
4207;DHT22;2117;47.972;7.830;2024-03-02T16:13:46;16.50;97.00
4207;DHT22;2117;47.972;7.830;2024-03-02T16:16:12;16.40;96.50
4207;DHT22;2117;47.972;7.830;2024-03-02T16:18:38;16.40;97.20